Time;durP1;ratioP1;P1;durP2;ratioP2;P2;SDS_P1;SDS_P2;PMS_P1;PMS_P2;Temp;Humidity;BMP_temperature;BMP_pressure;BME280_temperature;BME280_humidity;BME280_pressure;Samples;Min_cycle;Max_cycle;Signal;HPM_P1;HPM_P2
2023/02/08 00:01:38;;;;;;;18.33;8.98;;;-5.50;99.90;;;;;;5053606;28;20375;-77
2023/02/08 00:04:04;;;;;;;17.00;8.95;;;-5.50;99.90;;;;;;5052187;28;20120;-78
2023/02/08 00:06:30;;;;;;;20.20;9.27;;;-5.50;99.90;;;;;;5054000;28;20033;-78
2023/02/08 00:08:56;;;;;;;17.25;8.73;;;-5.50;99.90;;;;;;5052317;28;20041;-78
2023/02/08 00:11:22;;;;;;;17.60;8.68;;;-5.60;99.90;;;;;;5052921;28;20418;-78
2023/02/08 00:13:48;;;;;;;18.10;9.02;;;-5.60;99.90;;;;;;5052951;28;20039;-77
2023/02/08 00:16:14;;;;;;;20.38;9.70;;;-5.50;99.90;;;;;;5032744;28;20096;-78
2023/02/08 00:18:40;;;;;;;18.55;9.43;;;-5.60;99.90;;;;;;5040134;28;20036;-78
2023/02/08 00:21:11;;;;;;;18.35;9.02;;;-5.60;99.90;;;;;;5036462;28;20057;-77
2023/02/08 00:23:37;;;;;;;19.25;9.55;;;-5.70;99.90;;;;;;5053592;28;20045;-77
2023/02/08 00:26:03;;;;;;;18.73;10.13;;;-5.60;99.90;;;;;;5059783;28;20428;-79
2023/02/08 00:28:29;;;;;;;16.55;8.50;;;-5.60;99.90;;;;;;5047739;28;20044;-79
2023/02/08 00:30:54;;;;;;;21.35;9.93;;;-5.60;99.90;;;;;;5051091;28;20033;-78
2023/02/08 00:33:20;;;;;;;19.58;9.50;;;-5.60;99.90;;;;;;5054730;28;20033;-78
2023/02/08 00:35:46;;;;;;;15.02;8.85;;;-5.70;99.90;;;;;;5053568;28;20397;-78
2023/02/08 00:38:12;;;;;;;20.48;9.95;;;-5.70;99.90;;;;;;5053381;28;20021;-78
2023/02/08 00:40:38;;;;;;;21.92;9.57;;;-5.70;99.90;;;;;;5053969;28;20328;-78
2023/02/08 00:43:03;;;;;;;22.05;10.40;;;-5.70;99.90;;;;;;5035549;28;20029;-79
2023/02/08 00:45:29;;;;;;;18.65;9.68;;;-5.80;99.90;;;;;;5053288;28;20036;-78
2023/02/08 00:47:55;;;;;;;17.05;9.40;;;-5.80;99.90;;;;;;5053479;28;20029;-79
2023/02/08 00:50:21;;;;;;;19.13;10.32;;;-5.80;99.90;;;;;;5037669;28;20036;-78
2023/02/08 00:52:47;;;;;;;20.02;10.30;;;-5.90;99.90;;;;;;5057987;28;20051;-77
2023/02/08 00:55:13;;;;;;;19.10;10.10;;;-5.90;99.90;;;;;;5051455;28;20088;-78
2023/02/08 00:57:38;;;;;;;17.33;9.63;;;-5.90;99.90;;;;;;5041759;28;20035;-78
2023/02/08 01:00:06;;;;;;;21.52;9.25;;;-5.90;99.90;;;;;;5035907;28;20025;-78
2023/02/08 01:02:32;;;;;;;16.42;9.38;;;-5.90;99.90;;;;;;5051684;28;20083;-78
2023/02/08 01:04:58;;;;;;;18.38;9.65;;;-5.80;99.90;;;;;;5053494;28;20100;-78
2023/02/08 01:07:23;;;;;;;24.95;10.65;;;-5.80;99.90;;;;;;5050129;28;20056;-78
2023/02/08 01:09:49;;;;;;;24.95;10.25;;;-5.90;99.90;;;;;;5047495;28;20509;-78
2023/02/08 01:12:15;;;;;;;22.15;10.57;;;-5.90;99.90;;;;;;5059466;28;20025;-79
2023/02/08 01:14:41;;;;;;;20.63;10.38;;;-5.90;99.90;;;;;;5057099;28;20527;-78
2023/02/08 01:17:07;;;;;;;20.10;10.75;;;-6.00;99.90;;;;;;5047004;28;20029;-78
2023/02/08 01:19:33;;;;;;;18.98;9.75;;;-6.00;99.90;;;;;;5058010;28;20061;-77
2023/02/08 01:22:02;;;;;;;19.35;10.50;;;-6.00;99.90;;;;;;5051836;28;20032;-79
2023/02/08 01:24:28;;;;;;;21.55;10.60;;;-6.00;99.90;;;;;;5032126;28;20043;-78
2023/02/08 01:26:54;;;;;;;18.40;9.13;;;-6.00;99.90;;;;;;5048500;28;20037;-78
2023/02/08 01:29:19;;;;;;;18.63;10.30;;;-6.00;99.90;;;;;;5049312;28;20120;-78
2023/02/08 01:31:45;;;;;;;26.02;11.35;;;-6.10;99.90;;;;;;5053713;28;20060;-77
2023/02/08 01:34:12;;;;;;;19.52;10.07;;;-6.10;99.90;;;;;;5037443;28;20040;-77
2023/02/08 01:36:38;;;;;;;20.70;10.15;;;-6.10;99.90;;;;;;5055331;28;20017;-78
2023/02/08 01:39:06;;;;;;;20.83;10.65;;;-6.10;99.90;;;;;;5053092;28;20025;-78
2023/02/08 01:41:43;;;;;;;22.23;10.40;;;-6.10;99.90;;;;;;5057116;28;20481;-78
2023/02/08 01:44:16;;;;;;;22.05;10.30;;;-6.10;99.90;;;;;;5062239;28;20033;-78
2023/02/08 01:46:48;;;;;;;16.85;9.32;;;-6.10;99.90;;;;;;5052841;28;20031;-77
2023/02/08 01:49:20;;;;;;;20.45;10.77;;;-6.20;99.90;;;;;;5053061;28;20029;-78
2023/02/08 01:51:51;;;;;;;23.20;10.73;;;-6.20;99.90;;;;;;5058424;28;20045;-77
2023/02/08 01:54:19;;;;;;;21.45;10.65;;;-6.10;99.90;;;;;;5046375;28;20032;-78
2023/02/08 01:56:46;;;;;;;23.60;11.15;;;-6.10;99.90;;;;;;5046786;28;20473;-78
2023/02/08 01:59:20;;;;;;;21.55;10.48;;;-6.10;99.90;;;;;;5044069;28;20021;-79
2023/02/08 02:01:48;;;;;;;20.63;11.05;;;-6.10;99.90;;;;;;5032866;28;20477;-78
2023/02/08 02:04:14;;;;;;;20.63;10.70;;;-6.10;99.90;;;;;;5047407;28;20404;-78
2023/02/08 02:06:45;;;;;;;22.55;11.48;;;-6.10;99.90;;;;;;5044960;28;20032;-79
2023/02/08 02:09:36;;;;;;;20.23;10.43;;;-6.10;99.90;;;;;;5042451;28;20033;-78
2023/02/08 02:12:04;;;;;;;21.77;11.02;;;-6.10;99.90;;;;;;5047502;28;20028;-78
2023/02/08 02:14:29;;;;;;;21.35;10.55;;;-6.10;99.90;;;;;;5048185;28;20029;-78
2023/02/08 02:16:58;;;;;;;22.30;10.63;;;-6.10;99.90;;;;;;5051803;28;20048;-78
2023/02/08 02:19:30;;;;;;;21.13;10.05;;;-6.20;99.90;;;;;;5033900;28;20029;-78
2023/02/08 02:22:02;;;;;;;19.85;11.13;;;-6.20;99.90;;;;;;5046915;28;20070;-78
2023/02/08 02:25:10;;;;;;;19.40;10.20;;;-6.30;99.90;;;;;;5053991;28;20366;-77
2023/02/08 02:28:01;;;;;;;18.00;9.65;;;-6.30;99.90;;;;;;5047309;28;20099;-78
2023/02/08 02:30:59;;;;;;;22.77;10.45;;;-6.30;99.90;;;;;;5058284;28;20083;-77
2023/02/08 02:33:37;;;;;;;23.85;11.43;;;-6.20;99.90;;;;;;5052744;28;20029;-78
2023/02/08 02:36:18;;;;;;;22.92;11.38;;;-6.20;99.90;;;;;;5048343;28;20048;-78
2023/02/08 02:39:04;;;;;;;24.23;10.73;;;-6.30;99.90;;;;;;5051997;28;20029;-78
2023/02/08 02:44:44;;;;;;;21.80;10.95;;;-6.20;99.90;;;;;;5045155;28;20033;-78
2023/02/08 02:47:28;;;;;;;24.42;10.77;;;-6.30;99.90;;;;;;5047409;28;20021;-78
2023/02/08 02:50:22;;;;;;;21.00;10.18;;;-6.10;99.90;;;;;;5050309;28;20924;-78
2023/02/08 02:53:08;;;;;;;17.83;9.98;;;-6.10;99.90;;;;;;5053013;28;20056;-78
2023/02/08 02:55:42;;;;;;;20.42;10.05;;;-6.10;99.90;;;;;;5050713;28;20057;-78
2023/02/08 02:58:12;;;;;;;22.38;10.50;;;-6.20;99.90;;;;;;5051950;28;20521;-78
2023/02/08 03:00:38;;;;;;;19.42;9.52;;;-6.20;99.90;;;;;;5050843;28;20059;-78
2023/02/08 03:03:05;;;;;;;19.83;9.60;;;-6.20;99.90;;;;;;5051848;28;20029;-78
2023/02/08 03:05:31;;;;;;;22.95;10.93;;;-6.20;99.90;;;;;;5045715;28;20052;-78
2023/02/08 03:08:33;;;;;;;17.88;9.38;;;-6.20;99.90;;;;;;5077279;28;20043;-78
2023/02/08 03:11:13;;;;;;;22.15;11.20;;;-6.20;99.90;;;;;;5052195;28;20090;-78
2023/02/08 03:14:04;;;;;;;20.65;10.38;;;-6.20;99.90;;;;;;5068592;28;20043;-78
2023/02/08 03:17:07;;;;;;;20.35;10.02;;;-6.20;99.90;;;;;;5048388;28;20094;-79
2023/02/08 03:20:13;;;;;;;23.50;10.18;;;-6.10;99.90;;;;;;5055539;28;20029;-78
2023/02/08 03:23:18;;;;;;;20.25;10.25;;;-6.10;99.90;;;;;;5051340;28;20068;-79
2023/02/08 03:25:56;;;;;;;18.55;9.05;;;-6.10;99.90;;;;;;5050917;28;20025;-79
2023/02/08 03:28:32;;;;;;;21.17;10.57;;;-6.20;99.90;;;;;;5049610;28;20056;-78
2023/02/08 03:31:13;;;;;;;24.45;10.95;;;-6.10;99.90;;;;;;5049599;28;20033;-78
2023/02/08 03:33:49;;;;;;;20.13;9.40;;;-6.10;99.90;;;;;;5050464;28;20031;-78
2023/02/08 03:36:33;;;;;;;21.02;9.23;;;-6.10;99.90;;;;;;5062576;28;20531;-78
2023/02/08 03:39:03;;;;;;;17.88;9.32;;;-6.10;99.90;;;;;;5049147;28;20021;-77
2023/02/08 03:41:35;;;;;;;14.63;8.60;;;-6.10;99.90;;;;;;5059667;28;20025;-78
2023/02/08 03:44:17;;;;;;;20.50;10.20;;;-6.10;99.90;;;;;;5062962;28;20053;-78
2023/02/08 03:46:53;;;;;;;17.90;9.63;;;-6.20;99.90;;;;;;5057042;28;20653;-79
2023/02/08 03:49:29;;;;;;;19.30;9.40;;;-6.20;99.90;;;;;;5041401;28;20048;-78
2023/02/08 03:51:58;;;;;;;19.67;10.05;;;-6.30;99.90;;;;;;5056606;28;20496;-77
2023/02/08 03:54:27;;;;;;;20.70;9.88;;;-6.30;99.90;;;;;;5051720;28;20072;-79
2023/02/08 03:57:03;;;;;;;19.23;9.98;;;-6.30;99.90;;;;;;5054244;28;20370;-78
2023/02/08 03:59:37;;;;;;;20.70;10.27;;;-6.30;99.90;;;;;;5054537;28;20024;-79
2023/02/08 04:02:06;;;;;;;22.00;9.15;;;-6.40;99.90;;;;;;5045328;28;20466;-79
2023/02/08 04:04:36;;;;;;;21.08;9.88;;;-6.40;99.90;;;;;;5055286;28;20554;-77
2023/02/08 04:07:03;;;;;;;19.63;9.57;;;-6.40;99.90;;;;;;5056705;28;20025;-79
2023/02/08 04:09:28;;;;;;;19.75;9.35;;;-6.50;99.90;;;;;;5059229;28;20089;-78
2023/02/08 04:11:54;;;;;;;20.63;9.60;;;-6.50;99.90;;;;;;5056475;28;20664;-76
2023/02/08 04:14:20;;;;;;;19.67;9.50;;;-6.50;99.90;;;;;;5059418;28;20056;-79
2023/02/08 04:16:46;;;;;;;22.25;10.20;;;-6.40;99.90;;;;;;5053750;28;20057;-79
2023/02/08 04:19:12;;;;;;;23.42;10.60;;;-6.40;99.90;;;;;;5056085;28;20124;-78
2023/02/08 04:21:38;;;;;;;18.33;8.93;;;-6.40;99.90;;;;;;5055203;28;20394;-79
2023/02/08 04:24:04;;;;;;;21.45;9.80;;;-6.40;99.90;;;;;;5056012;28;20028;-78
2023/02/08 04:26:29;;;;;;;22.70;9.98;;;-6.40;99.90;;;;;;5053269;28;20444;-78
2023/02/08 04:28:55;;;;;;;22.40;9.95;;;-6.40;99.90;;;;;;5054204;28;20124;-77
2023/02/08 04:31:21;;;;;;;23.17;9.52;;;-6.40;99.90;;;;;;5057681;28;20165;-77
2023/02/08 04:33:47;;;;;;;19.27;9.05;;;-6.40;99.90;;;;;;5053639;28;20021;-78
2023/02/08 04:36:12;;;;;;;16.75;8.82;;;-6.40;99.90;;;;;;5050977;28;20442;-79
2023/02/08 04:38:38;;;;;;;21.13;9.63;;;-6.40;99.90;;;;;;5051242;28;20037;-79
2023/02/08 04:41:04;;;;;;;20.73;10.00;;;-6.40;99.90;;;;;;5054615;28;20028;-78
2023/02/08 04:43:30;;;;;;;19.27;9.77;;;-6.40;99.90;;;;;;5051786;28;20546;-77
2023/02/08 04:45:56;;;;;;;20.02;9.77;;;-6.40;99.90;;;;;;5046053;28;20044;-77
2023/02/08 04:48:22;;;;;;;21.63;9.55;;;-6.40;99.90;;;;;;5041022;28;20032;-77
2023/02/08 04:50:47;;;;;;;22.95;10.82;;;-6.30;99.90;;;;;;5051982;28;20060;-78
2023/02/08 04:53:13;;;;;;;25.27;11.60;;;-6.30;99.90;;;;;;5047179;28;20036;-77
2023/02/08 04:55:39;;;;;;;20.73;10.98;;;-6.30;99.90;;;;;;5048222;28;20643;-77
2023/02/08 04:58:05;;;;;;;22.52;10.48;;;-6.20;99.90;;;;;;5051000;28;20021;-77
2023/02/08 05:00:31;;;;;;;22.08;11.25;;;-6.10;99.90;;;;;;5049337;28;20559;-78
2023/02/08 05:02:57;;;;;;;26.85;11.02;;;-6.20;99.90;;;;;;5048181;28;20024;-78
2023/02/08 05:05:24;;;;;;;26.15;10.63;;;-6.10;99.90;;;;;;5048794;28;20017;-78
2023/02/08 05:07:50;;;;;;;21.15;10.77;;;-6.00;99.90;;;;;;5052777;28;20524;-78
2023/02/08 05:10:16;;;;;;;24.15;12.18;;;-6.00;99.90;;;;;;5051756;28;20033;-77
2023/02/08 05:12:42;;;;;;;22.40;10.93;;;-5.90;99.90;;;;;;5053549;28;20021;-77
2023/02/08 05:15:09;;;;;;;23.33;11.38;;;-5.90;99.90;;;;;;5053979;28;20059;-78
2023/02/08 05:17:35;;;;;;;21.02;11.02;;;-5.90;99.90;;;;;;5051703;28;20029;-78
2023/02/08 05:20:02;;;;;;;22.95;11.82;;;-5.80;99.90;;;;;;5052008;28;20029;-78
2023/02/08 05:22:28;;;;;;;22.77;11.52;;;-5.90;99.90;;;;;;5051163;28;20033;-79
2023/02/08 05:24:54;;;;;;;27.48;12.77;;;-5.90;99.90;;;;;;5052835;28;20079;-78
2023/02/08 05:27:20;;;;;;;22.75;11.48;;;-5.90;99.90;;;;;;5049068;28;20460;-78
2023/02/08 05:29:45;;;;;;;29.65;12.77;;;-6.00;99.90;;;;;;5052045;28;20048;-78
2023/02/08 05:32:11;;;;;;;24.45;10.75;;;-6.00;99.90;;;;;;5051647;28;20434;-78
2023/02/08 05:34:37;;;;;;;24.75;11.27;;;-6.00;99.90;;;;;;5053548;28;20056;-78
2023/02/08 05:37:03;;;;;;;26.13;11.40;;;-6.00;99.90;;;;;;5052174;28;20112;-78
2023/02/08 05:39:29;;;;;;;22.48;11.60;;;-6.10;99.90;;;;;;5052982;28;20029;-78
2023/02/08 05:41:55;;;;;;;25.92;10.95;;;-6.10;99.90;;;;;;5035748;28;20032;-78
2023/02/08 05:44:21;;;;;;;25.67;11.63;;;-6.10;99.90;;;;;;5051798;28;20401;-77
2023/02/08 05:46:47;;;;;;;26.42;12.13;;;-6.10;99.90;;;;;;5050394;28;20101;-78
2023/02/08 05:49:13;;;;;;;26.48;12.23;;;-6.20;99.90;;;;;;5051262;28;20311;-78
2023/02/08 05:51:38;;;;;;;25.73;12.52;;;-6.30;99.90;;;;;;5054436;28;20040;-77
2023/02/08 05:54:04;;;;;;;29.23;13.90;;;-6.30;99.90;;;;;;5050560;28;20132;-77
2023/02/08 05:56:33;;;;;;;25.73;12.30;;;-6.30;99.90;;;;;;5050979;28;20529;-79
2023/02/08 05:59:00;;;;;;;30.95;15.18;;;-6.30;99.90;;;;;;5051141;28;20120;-77
2023/02/08 06:01:26;;;;;;;29.52;12.05;;;-6.40;99.90;;;;;;5048981;28;20611;-78
2023/02/08 06:03:52;;;;;;;28.25;12.98;;;-6.40;99.90;;;;;;5048733;28;20124;-78
2023/02/08 06:06:19;;;;;;;27.92;13.00;;;-6.40;99.90;;;;;;5046717;28;20112;-78
2023/02/08 06:08:45;;;;;;;31.42;14.75;;;-6.50;99.90;;;;;;5049892;28;20036;-76
2023/02/08 06:11:11;;;;;;;72.68;30.88;;;-6.50;99.90;;;;;;5050550;28;20044;-78
2023/02/08 06:13:37;;;;;;;49.95;21.02;;;-6.60;99.90;;;;;;5054414;28;20111;-78
2023/02/08 06:16:05;;;;;;;23.10;11.05;;;-6.60;99.90;;;;;;5045128;28;20090;-78
2023/02/08 06:18:30;;;;;;;25.70;11.23;;;-6.60;99.90;;;;;;5074448;28;20539;-78
2023/02/08 06:20:56;;;;;;;27.98;12.00;;;-6.60;99.90;;;;;;5050435;28;20021;-78
2023/02/08 06:23:23;;;;;;;24.42;11.68;;;-6.60;99.90;;;;;;5034586;28;20079;-78
2023/02/08 06:25:49;;;;;;;24.75;11.63;;;-6.60;99.90;;;;;;5049248;28;20032;-78
2023/02/08 06:28:15;;;;;;;23.20;10.93;;;-6.60;99.90;;;;;;5052346;28;20124;-78
2023/02/08 06:30:41;;;;;;;23.75;12.70;;;-6.60;99.90;;;;;;5050939;28;20107;-77
2023/02/08 06:33:07;;;;;;;25.75;12.07;;;-6.60;99.90;;;;;;5051010;28;20040;-78
2023/02/08 06:35:32;;;;;;;25.33;12.25;;;-6.70;99.90;;;;;;5047804;28;20124;-77
2023/02/08 06:37:58;;;;;;;24.95;12.13;;;-6.70;99.90;;;;;;5046884;28;20038;-77
2023/02/08 06:40:24;;;;;;;24.63;12.00;;;-6.80;99.90;;;;;;5046764;28;20481;-77
2023/02/08 06:42:50;;;;;;;26.17;12.38;;;-6.70;99.90;;;;;;5051450;28;20021;-77
2023/02/08 06:45:16;;;;;;;24.77;12.27;;;-6.70;99.90;;;;;;5053987;28;20024;-78
2023/02/08 06:47:42;;;;;;;28.83;14.52;;;-6.70;99.90;;;;;;5051415;28;20033;-77
2023/02/08 06:50:09;;;;;;;27.30;13.40;;;-6.70;99.90;;;;;;5035945;28;20031;-78
2023/02/08 06:52:35;;;;;;;22.13;12.10;;;-6.70;99.90;;;;;;5050063;28;20029;-78
2023/02/08 06:55:00;;;;;;;24.38;12.85;;;-6.70;99.90;;;;;;5054611;28;20071;-78
2023/02/08 06:57:26;;;;;;;29.02;12.88;;;-6.70;99.90;;;;;;5050920;28;20021;-78
2023/02/08 06:59:52;;;;;;;25.13;12.32;;;-6.70;99.90;;;;;;5050331;28;20654;-78
2023/02/08 07:02:20;;;;;;;24.10;11.77;;;-6.70;99.90;;;;;;5050523;28;20058;-78
2023/02/08 07:04:46;;;;;;;26.83;13.35;;;-6.60;99.90;;;;;;5056210;28;20032;-78
2023/02/08 07:07:14;;;;;;;35.28;16.83;;;-6.50;99.90;;;;;;5054514;28;20033;-78
2023/02/08 07:09:40;;;;;;;28.00;12.57;;;-6.40;99.90;;;;;;5051181;28;20083;-78
2023/02/08 07:12:06;;;;;;;26.75;12.88;;;-6.40;99.90;;;;;;5048931;28;20028;-78
2023/02/08 07:14:34;;;;;;;29.25;14.55;;;-6.20;99.90;;;;;;5048069;28;20029;-78
2023/02/08 07:17:03;;;;;;;35.38;15.25;;;-6.10;99.90;;;;;;5054569;28;20374;-78
2023/02/08 07:19:29;;;;;;;33.50;13.02;;;-6.00;99.90;;;;;;5051877;28;20032;-78
2023/02/08 07:21:56;;;;;;;28.85;13.38;;;-5.90;99.90;;;;;;5050547;28;20067;-78
2023/02/08 07:24:23;;;;;;;33.90;16.23;;;-5.80;99.90;;;;;;5050968;28;20537;-78
2023/02/08 07:26:48;;;;;;;31.23;15.32;;;-5.80;99.90;;;;;;5050994;28;20029;-77
2023/02/08 07:29:14;;;;;;;31.67;15.15;;;-5.70;99.90;;;;;;5043911;28;20044;-79
2023/02/08 07:31:40;;;;;;;29.85;13.73;;;-5.60;99.90;;;;;;5044275;28;20021;-78
2023/02/08 07:34:06;;;;;;;25.60;12.27;;;-5.40;99.90;;;;;;5050319;28;20409;-77
2023/02/08 07:36:32;;;;;;;23.80;12.10;;;-5.10;99.90;;;;;;5050655;28;20040;-78
2023/02/08 07:38:57;;;;;;;22.95;12.55;;;-4.80;99.90;;;;;;5048856;28;20704;-77
2023/02/08 07:41:23;;;;;;;27.75;13.00;;;-4.50;99.90;;;;;;5048500;28;20508;-78
2023/02/08 07:43:49;;;;;;;29.13;12.90;;;-4.20;99.90;;;;;;5049112;28;20124;-78
2023/02/08 07:46:18;;;;;;;28.50;14.05;;;-3.90;99.90;;;;;;5050776;28;20037;-77
2023/02/08 07:48:44;;;;;;;27.20;12.75;;;-3.50;99.90;;;;;;5047206;28;20033;-77
2023/02/08 07:51:11;;;;;;;29.20;12.63;;;-3.10;99.90;;;;;;5046305;28;20546;-77
2023/02/08 07:53:37;;;;;;;24.55;12.30;;;-2.90;99.90;;;;;;5048569;28;20509;-78
2023/02/08 07:56:03;;;;;;;27.63;11.95;;;-2.80;99.90;;;;;;5048932;28;20029;-77
2023/02/08 07:58:28;;;;;;;23.00;12.18;;;-2.60;99.90;;;;;;5048704;28;20037;-77
2023/02/08 08:00:54;;;;;;;25.58;12.70;;;-2.50;99.90;;;;;;5049197;28;20080;-77
2023/02/08 08:03:20;;;;;;;26.70;12.60;;;-2.40;99.90;;;;;;5048680;28;20029;-77
2023/02/08 08:05:46;;;;;;;33.63;16.60;;;-2.40;99.90;;;;;;5049601;28;20417;-78
2023/02/08 08:08:12;;;;;;;32.33;16.02;;;-2.30;99.90;;;;;;5043942;28;20128;-77
2023/02/08 08:10:38;;;;;;;31.13;14.80;;;-2.20;99.90;;;;;;5043290;28;20032;-78
2023/02/08 08:13:04;;;;;;;30.63;14.35;;;-2.20;99.90;;;;;;5045560;28;20120;-77
2023/02/08 08:15:30;;;;;;;26.58;14.52;;;-2.10;99.90;;;;;;5048601;28;20047;-77
2023/02/08 08:17:56;;;;;;;28.83;14.02;;;-2.10;99.90;;;;;;5051749;28;20477;-77
2023/02/08 08:20:22;;;;;;;28.80;12.93;;;-2.20;99.90;;;;;;5046466;28;21293;-77
2023/02/08 08:22:48;;;;;;;29.95;14.13;;;-2.20;99.90;;;;;;5049478;28;20828;-77
2023/02/08 08:25:14;;;;;;;28.10;13.07;;;-2.20;99.90;;;;;;5048641;28;20053;-77
2023/02/08 08:27:40;;;;;;;28.15;14.10;;;-2.10;99.90;;;;;;5032764;28;20040;-77
2023/02/08 08:30:12;;;;;;;27.65;14.55;;;-2.10;99.90;;;;;;5048741;28;20397;-76
2023/02/08 08:32:38;;;;;;;29.23;13.38;;;-2.00;99.90;;;;;;5029719;28;20048;-77
2023/02/08 08:35:05;;;;;;;28.50;13.85;;;-1.90;99.90;;;;;;5043866;28;20075;-77
2023/02/08 08:37:31;;;;;;;24.27;13.43;;;-2.00;99.90;;;;;;5048775;28;20393;-76
2023/02/08 08:39:57;;;;;;;25.38;12.13;;;-1.90;99.90;;;;;;5044020;28;20071;-77
2023/02/08 08:42:23;;;;;;;30.98;15.23;;;-1.90;99.90;;;;;;5038859;28;20021;-75
2023/02/08 08:44:49;;;;;;;31.98;14.57;;;-1.80;99.90;;;;;;5043127;28;20045;-75
2023/02/08 08:47:15;;;;;;;35.28;14.13;;;-1.90;99.90;;;;;;5044084;28;20098;-77
2023/02/08 08:49:42;;;;;;;27.55;13.43;;;-1.90;99.90;;;;;;5044082;28;20045;-75
2023/02/08 08:52:09;;;;;;;26.85;12.75;;;-1.80;99.90;;;;;;5046525;28;20158;-76
2023/02/08 08:54:35;;;;;;;26.50;12.50;;;-1.80;99.90;;;;;;5044824;28;20065;-75
2023/02/08 08:57:01;;;;;;;27.35;13.32;;;-1.80;99.90;;;;;;5045269;28;20028;-77
2023/02/08 08:59:27;;;;;;;25.35;13.10;;;-1.70;99.90;;;;;;5045533;28;20666;-77
2023/02/08 09:01:53;;;;;;;22.85;12.15;;;-1.70;99.90;;;;;;5047642;28;20025;-77
2023/02/08 09:04:21;;;;;;;25.25;12.15;;;-1.70;99.90;;;;;;5046690;28;20037;-77
2023/02/08 09:06:52;;;;;;;24.75;12.15;;;-1.60;99.90;;;;;;5047703;28;20047;-76
2023/02/08 09:09:19;;;;;;;24.20;12.10;;;-1.50;99.90;;;;;;5043069;28;20497;-77
2023/02/08 09:11:45;;;;;;;26.65;12.23;;;-1.50;99.90;;;;;;5042642;28;20336;-76
2023/02/08 09:14:11;;;;;;;21.27;11.05;;;-1.40;99.90;;;;;;5047096;28;20106;-77
2023/02/08 09:16:40;;;;;;;25.55;11.82;;;-1.30;99.90;;;;;;5043078;28;20490;-76
2023/02/08 09:19:07;;;;;;;24.38;11.52;;;-1.30;99.90;;;;;;5046776;28;20638;-76
2023/02/08 09:21:33;;;;;;;25.70;11.73;;;-1.20;99.90;;;;;;5029889;28;20017;-76
2023/02/08 09:24:03;;;;;;;22.60;10.27;;;-1.20;99.90;;;;;;5048903;28;20120;-77
2023/02/08 09:26:29;;;;;;;22.85;11.25;;;-1.20;99.90;;;;;;5045021;28;20029;-76
2023/02/08 09:28:55;;;;;;;25.42;12.15;;;-1.10;99.90;;;;;;5044269;28;20032;-77
2023/02/08 09:31:22;;;;;;;22.08;11.15;;;-1.00;99.90;;;;;;5047417;28;20071;-77
2023/02/08 09:33:48;;;;;;;23.75;10.90;;;-0.90;99.90;;;;;;5043579;28;20075;-77
2023/02/08 09:36:14;;;;;;;23.55;10.50;;;-0.90;99.90;;;;;;5044293;28;20029;-77
2023/02/08 09:38:41;;;;;;;19.25;10.00;;;-0.80;99.90;;;;;;5047229;28;20033;-77
2023/02/08 09:41:42;;;;;;;22.45;10.38;;;-0.90;99.90;;;;;;5047516;28;20017;-77
2023/02/08 09:44:39;;;;;;;20.90;10.38;;;-0.80;99.90;;;;;;5006519;28;20025;-77
2023/02/08 09:47:30;;;;;;;23.10;10.52;;;-0.70;99.90;;;;;;5043490;28;20055;-77
2023/02/08 09:50:15;;;;;;;21.00;9.73;;;-0.60;99.90;;;;;;5041166;28;20052;-77
2023/02/08 09:52:46;;;;;;;22.50;10.73;;;-0.50;99.90;;;;;;5042235;28;20041;-77
2023/02/08 09:55:58;;;;;;;26.48;13.25;;;-0.40;99.90;;;;;;5044042;28;20029;-77
2023/02/08 09:58:43;;;;;;;23.92;10.18;;;-0.30;99.90;;;;;;5005195;28;20029;-77
2023/02/08 10:01:18;;;;;;;;;;;-0.30;99.90;;;;;;5042474;28;20037;-77
2023/02/08 10:03:44;;;;;;;20.88;9.52;;;-0.30;99.90;;;;;;5042256;28;19991;-77
2023/02/08 10:06:16;;;;;;;24.58;11.23;;;-0.20;99.90;;;;;;5043478;28;20033;-77
2023/02/08 10:08:44;;;;;;;21.42;10.27;;;-0.20;99.90;;;;;;5045990;28;20044;-77
2023/02/08 10:11:37;;;;;;;23.17;11.35;;;-0.20;99.90;;;;;;5045685;28;20124;-77
2023/02/08 10:14:03;;;;;;;19.35;9.18;;;-0.10;99.90;;;;;;5039292;28;20030;-76
2023/02/08 10:16:41;;;;;;;28.60;11.32;;;-0.10;99.90;;;;;;5050105;28;20648;-77
2023/02/08 10:19:36;;;;;;;23.27;10.48;;;0.00;99.90;;;;;;5044368;28;20033;-76
2023/02/08 10:22:21;;;;;;;20.25;10.52;;;0.10;99.90;;;;;;5048998;28;20032;-77
2023/02/08 10:25:30;;;;;;;22.30;10.70;;;0.10;99.90;;;;;;5043885;28;20032;-76
2023/02/08 10:28:14;;;;;;;28.10;11.55;;;0.20;99.90;;;;;;5032128;28;20449;-76
2023/02/08 10:31:02;;;;;;;28.52;11.68;;;0.40;99.90;;;;;;5044252;28;20041;-76
2023/02/08 10:33:47;;;;;;;26.05;11.68;;;0.50;99.90;;;;;;5040204;28;20025;-76
2023/02/08 10:36:19;;;;;;;25.57;11.80;;;0.50;99.90;;;;;;5041920;28;20040;-74
2023/02/08 10:38:47;;;;;;;23.90;10.85;;;0.60;99.90;;;;;;5044321;28;20321;-76
2023/02/08 10:41:22;;;;;;;22.38;11.43;;;0.60;99.90;;;;;;5046932;28;20470;-76
2023/02/08 10:43:55;;;;;;;23.42;11.32;;;0.60;99.90;;;;;;5045196;28;20059;-76
2023/02/08 10:46:30;;;;;;;24.08;11.10;;;0.70;99.90;;;;;;5032523;28;20045;-75
2023/02/08 10:49:06;;;;;;;23.60;10.70;;;0.70;99.90;;;;;;5051625;28;20021;-74
2023/02/08 10:51:32;;;;;;;21.08;10.25;;;0.80;99.90;;;;;;5045193;28;20037;-76
2023/02/08 10:53:57;;;;;;;22.35;10.23;;;0.80;99.90;;;;;;5048010;28;20040;-76
2023/02/08 10:56:29;;;;;;;21.33;11.32;;;0.80;99.90;;;;;;5046974;28;20071;-76
2023/02/08 10:58:59;;;;;;;21.88;10.48;;;0.80;99.90;;;;;;5046315;28;20021;-75
2023/02/08 11:01:27;;;;;;;21.92;11.02;;;0.90;99.90;;;;;;5045080;28;20372;-76
2023/02/08 11:04:01;;;;;;;25.63;11.20;;;0.90;99.90;;;;;;5029112;28;20029;-76
2023/02/08 11:06:27;;;;;;;18.95;10.02;;;1.00;99.90;;;;;;5041797;28;20041;-77
2023/02/08 11:08:54;;;;;;;22.20;10.13;;;1.00;99.90;;;;;;5046057;28;20071;-75
2023/02/08 11:11:20;;;;;;;20.40;9.82;;;1.10;99.90;;;;;;5042049;28;20117;-76
2023/02/08 11:13:51;;;;;;;21.35;9.98;;;1.10;99.90;;;;;;5044468;28;20116;-76
2023/02/08 11:16:25;;;;;;;17.52;9.00;;;1.10;99.90;;;;;;5026449;28;20053;-76
2023/02/08 11:18:55;;;;;;;22.10;10.75;;;1.20;99.90;;;;;;5042745;28;20028;-76
2023/02/08 11:21:32;;;;;;;22.67;10.93;;;1.20;99.90;;;;;;5046988;28;20021;-76
2023/02/08 11:24:06;;;;;;;23.92;11.68;;;1.20;99.90;;;;;;5045691;28;20827;-76
2023/02/08 11:26:36;;;;;;;22.65;11.90;;;1.20;99.90;;;;;;5043030;28;20033;-76
2023/02/08 11:29:13;;;;;;;24.30;12.32;;;1.20;99.90;;;;;;5043609;28;20032;-77
2023/02/08 11:32:01;;;;;;;21.88;11.35;;;1.30;99.90;;;;;;5046621;28;20064;-76
2023/02/08 11:34:32;;;;;;;21.88;11.32;;;1.30;99.90;;;;;;5046672;28;20026;-76
2023/02/08 11:37:02;;;;;;;24.40;11.70;;;1.30;99.90;;;;;;5045707;28;20035;-75
2023/02/08 11:39:48;;;;;;;24.98;11.43;;;1.30;99.90;;;;;;5045167;28;20037;-77
2023/02/08 11:42:31;;;;;;;24.23;11.85;;;1.40;99.90;;;;;;5047364;28;20032;-76
2023/02/08 11:44:58;;;;;;;21.55;11.13;;;1.50;99.90;;;;;;5040412;28;20033;-76
2023/02/08 11:47:33;;;;;;;25.25;10.75;;;1.50;99.90;;;;;;5043714;28;20067;-77
2023/02/08 11:50:02;;;;;;;21.83;11.35;;;1.50;99.90;;;;;;5044698;28;20074;-77
2023/02/08 11:52:38;;;;;;;18.95;9.95;;;1.50;99.90;;;;;;5050351;28;20036;-76
2023/02/08 11:55:15;;;;;;;19.27;9.95;;;1.50;99.90;;;;;;5044861;28;20083;-75
2023/02/08 11:57:52;;;;;;;20.33;9.98;;;1.50;99.90;;;;;;5044805;28;20021;-76
2023/02/08 12:00:22;;;;;;;21.15;9.05;;;1.60;99.90;;;;;;5051293;28;20021;-76
2023/02/08 12:02:50;;;;;;;20.80;10.57;;;1.70;99.90;;;;;;5050085;28;20072;-76
2023/02/08 12:05:21;;;;;;;20.38;9.75;;;1.70;99.90;;;;;;5048442;28;20025;-75
2023/02/08 12:08:25;;;;;;;22.45;11.07;;;1.70;99.30;;;;;;5058473;28;20029;-76
2023/02/08 12:10:59;;;;;;;20.23;10.00;;;1.70;99.40;;;;;;5033416;28;20041;-76
2023/02/08 12:13:39;;;;;;;22.20;10.52;;;1.70;99.30;;;;;;5042506;28;20040;-77
2023/02/08 12:16:11;;;;;;;22.27;11.02;;;1.70;98.50;;;;;;5049440;28;20031;-76
2023/02/08 12:18:48;;;;;;;20.05;10.07;;;1.70;98.70;;;;;;5050652;28;20029;-76
2023/02/08 12:21:25;;;;;;;19.02;10.30;;;1.70;99.20;;;;;;5048499;28;20087;-76
2023/02/08 12:24:35;;;;;;;27.25;10.43;;;1.70;99.30;;;;;;5051975;28;20029;-76
2023/02/08 12:27:00;;;;;;;16.67;9.40;;;1.80;99.90;;;;;;5047755;28;20040;-76
2023/02/08 12:29:47;;;;;;;21.85;12.60;;;1.80;98.70;;;;;;5046270;28;20032;-76
2023/02/08 12:32:50;;;;;;;24.85;11.05;;;1.80;98.10;;;;;;5048985;28;20043;-76
2023/02/08 12:35:46;;;;;;;26.10;13.18;;;1.80;97.30;;;;;;5049400;28;20028;-76
2023/02/08 12:41:13;;;;;;;20.10;9.80;;;1.80;98.60;;;;;;5045239;28;20078;-76
2023/02/08 12:43:57;;;;;;;19.25;9.45;;;1.90;98.20;;;;;;5048919;28;20067;-76
2023/02/08 12:46:45;;;;;;;21.05;8.93;;;1.90;97.40;;;;;;5054064;28;20056;-76
2023/02/08 12:49:38;;;;;;;21.83;9.38;;;2.00;96.90;;;;;;5046925;28;20036;-76
2023/02/08 12:52:04;;;;;;;19.15;9.20;;;2.10;97.40;;;;;;5047310;28;20025;-76
2023/02/08 12:54:49;;;;;;;18.42;9.15;;;2.10;96.90;;;;;;5045585;28;20433;-77
2023/02/08 12:57:19;;;;;;;19.33;9.93;;;2.20;96.60;;;;;;5046820;28;20056;-77